Terminal Aerodrome Forecast
Issued by NWS

Home | Current Version | Previous Version | Text Only | Print | Product List | Glossary On
Versions: 1 2 3 4 5 6 7 8 9 10 11 12 13 14 15 16 17 18 19 20 21 22 23 24 25 26 27 28 29 30 31 32 33 34 35 36 37 38 39 40 41 42 43 44 45 46 47 48 49 50
529
FTUS46 KEKA 060552
TAFACV
TAF
KACV 060552Z 0606/0706 08005KT 6SM BR VCSH BKN035 OVC045
     FM061000 VRB03KT 6SM BR BKN035 BKN250
     FM061500 13003KT 6SM HZ SCT040 BKN250
     FM061900 30006KT P6SM FEW050 SCT150 BKN200
     FM070300 VRB03KT P6SM SCT080 BKN200=

USA.gov is the U.S. government's official web portal to all federal, state and local government web resources and services.